sensor_id;sensor_type;location;lat;lon;timestamp;pressure;altitude;pressure_sealevel;temperature;humidity
73671;BME280;61968;48.178;11.566;2023-07-31T00:00:06;95922.09;;;18.26;34.82
73671;BME280;61968;48.178;11.566;2023-07-31T00:02:34;95922.09;;;18.26;34.82
73671;BME280;61968;48.178;11.566;2023-07-31T00:05:01;95918.91;;;18.24;35.25
73671;BME280;61968;48.178;11.566;2023-07-31T00:07:28;95923.47;;;18.24;35.01
73671;BME280;61968;48.178;11.566;2023-07-31T00:09:54;95921.84;;;18.23;35.53
73671;BME280;61968;48.178;11.566;2023-07-31T00:12:23;95924.25;;;18.24;35.29
73671;BME280;61968;48.178;11.566;2023-07-31T00:14:50;95922.16;;;18.16;35.57
73671;BME280;61968;48.178;11.566;2023-07-31T00:17:17;95920.56;;;18.15;35.64
73671;BME280;61968;48.178;11.566;2023-07-31T00:19:45;95919.16;;;18.23;35.46
73671;BME280;61968;48.178;11.566;2023-07-31T00:22:14;95920.31;;;17.96;35.77
73671;BME280;61968;48.178;11.566;2023-07-31T00:24:43;95923.28;;;17.95;35.83
73671;BME280;61968;48.178;11.566;2023-07-31T00:27:10;95912.81;;;17.93;36.00
73671;BME280;61968;48.178;11.566;2023-07-31T00:29:38;95914.47;;;17.89;36.01
73671;BME280;61968;48.178;11.566;2023-07-31T00:32:05;95911.25;;;17.92;36.17
73671;BME280;61968;48.178;11.566;2023-07-31T00:34:32;95909.09;;;17.94;36.25
73671;BME280;61968;48.178;11.566;2023-07-31T00:36:59;95912.03;;;17.92;36.19
73671;BME280;61968;48.178;11.566;2023-07-31T00:39:25;95903.75;;;17.89;36.43
73671;BME280;61968;48.178;11.566;2023-07-31T00:41:52;95904.59;;;17.84;36.58
73671;BME280;61968;48.178;11.566;2023-07-31T00:44:19;95901.63;;;17.86;36.36
73671;BME280;61968;48.178;11.566;2023-07-31T00:46:47;95899.50;;;17.88;36.24
73671;BME280;61968;48.178;11.566;2023-07-31T00:49:14;95897.38;;;17.85;36.39
73671;BME280;61968;48.178;11.566;2023-07-31T00:51:41;95893.06;;;17.84;36.41
73671;BME280;61968;48.178;11.566;2023-07-31T00:54:08;95906.19;;;17.85;36.83
73671;BME280;61968;48.178;11.566;2023-07-31T00:56:34;95899.50;;;17.88;36.73
73671;BME280;61968;48.178;11.566;2023-07-31T00:59:01;95890.38;;;17.89;36.57
73671;BME280;61968;48.178;11.566;2023-07-31T01:01:28;95893.06;;;17.84;36.62
73671;BME280;61968;48.178;11.566;2023-07-31T01:03:56;95891.97;;;17.90;36.86
73671;BME280;61968;48.178;11.566;2023-07-31T01:06:28;95894.09;;;17.98;36.68
73671;BME280;61968;48.178;11.566;2023-07-31T01:09:02;95889.28;;;17.95;36.47
73671;BME280;61968;48.178;11.566;2023-07-31T01:11:34;95888.47;;;18.00;36.49
73671;BME280;61968;48.178;11.566;2023-07-31T01:14:05;95891.97;;;18.00;35.89
73671;BME280;61968;48.178;11.566;2023-07-31T01:16:32;95883.69;;;17.91;36.46
73671;BME280;61968;48.178;11.566;2023-07-31T01:19:00;95884.78;;;17.85;36.16
73671;BME280;61968;48.178;11.566;2023-07-31T01:21:53;95876.81;;;17.70;36.53
73671;BME280;61968;48.178;11.566;2023-07-31T01:24:29;95875.47;;;17.67;36.27
73671;BME280;61968;48.178;11.566;2023-07-31T01:27:02;95875.75;;;17.66;36.66
73671;BME280;61968;48.178;11.566;2023-07-31T01:29:37;95870.13;;;17.62;36.56
73671;BME280;61968;48.178;11.566;2023-07-31T01:32:06;95872.00;;;17.72;36.58
73671;BME280;61968;48.178;11.566;2023-07-31T01:34:34;95860.22;;;17.73;36.67
73671;BME280;61968;48.178;11.566;2023-07-31T01:37:02;95863.16;;;17.82;36.20
73671;BME280;61968;48.178;11.566;2023-07-31T01:39:29;95861.81;;;17.79;36.27
73671;BME280;61968;48.178;11.566;2023-07-31T01:41:55;95855.69;;;17.74;36.46
73671;BME280;61968;48.178;11.566;2023-07-31T01:44:23;95866.38;;;17.79;36.33
73671;BME280;61968;48.178;11.566;2023-07-31T01:46:50;95861.56;;;17.76;36.62
73671;BME280;61968;48.178;11.566;2023-07-31T01:49:17;95864.19;;;17.81;36.10
73671;BME280;61968;48.178;11.566;2023-07-31T01:51:43;95867.41;;;17.78;36.25
73671;BME280;61968;48.178;11.566;2023-07-31T01:54:10;95865.53;;;17.83;35.96
73671;BME280;61968;48.178;11.566;2023-07-31T01:56:37;95855.41;;;17.75;35.82
73671;BME280;61968;48.178;11.566;2023-07-31T01:59:04;95857.00;;;17.71;36.08
73671;BME280;61968;48.178;11.566;2023-07-31T02:01:32;95853.50;;;17.81;35.76
73671;BME280;61968;48.178;11.566;2023-07-31T02:03:58;95857.78;;;17.82;36.29
73671;BME280;61968;48.178;11.566;2023-07-31T02:06:25;95857.53;;;17.78;35.90
73671;BME280;61968;48.178;11.566;2023-07-31T02:08:52;95857.81;;;17.72;36.21
73671;BME280;61968;48.178;11.566;2023-07-31T02:11:19;95855.69;;;17.74;36.53
73671;BME280;61968;48.178;11.566;2023-07-31T02:13:45;95846.00;;;17.83;36.22
73671;BME280;61968;48.178;11.566;2023-07-31T02:16:12;95847.88;;;17.82;36.22
73671;BME280;61968;48.178;11.566;2023-07-31T02:18:40;95843.63;;;17.76;36.27
73671;BME280;61968;48.178;11.566;2023-07-31T02:21:06;95836.69;;;17.75;36.05
73671;BME280;61968;48.178;11.566;2023-07-31T02:23:33;95834.28;;;17.68;36.45
73671;BME280;61968;48.178;11.566;2023-07-31T02:25:59;95836.47;;;17.61;36.52
73671;BME280;61968;48.178;11.566;2023-07-31T02:28:26;95833.84;;;17.51;36.97
73671;BME280;61968;48.178;11.566;2023-07-31T02:30:53;95831.97;;;17.47;37.01
73671;BME280;61968;48.178;11.566;2023-07-31T02:33:19;95828.50;;;17.51;36.98
73671;BME280;61968;48.178;11.566;2023-07-31T02:35:48;95831.13;;;17.56;36.80
73671;BME280;61968;48.178;11.566;2023-07-31T02:38:15;95825.22;;;17.70;36.53
73671;BME280;61968;48.178;11.566;2023-07-31T02:40:41;95820.38;;;17.72;36.66
73671;BME280;61968;48.178;11.566;2023-07-31T02:43:08;95816.44;;;17.54;36.58
73671;BME280;61968;48.178;11.566;2023-07-31T02:45:35;95820.47;;;17.51;36.90
73671;BME280;61968;48.178;11.566;2023-07-31T02:48:02;95819.13;;;17.49;36.88
73671;BME280;61968;48.178;11.566;2023-07-31T02:50:29;95814.00;;;17.62;36.88
73671;BME280;61968;48.178;11.566;2023-07-31T02:52:58;95811.06;;;17.64;36.69
73671;BME280;61968;48.178;11.566;2023-07-31T02:55:25;95804.88;;;17.68;36.69
73671;BME280;61968;48.178;11.566;2023-07-31T02:57:54;95803.53;;;17.66;37.00
73671;BME280;61968;48.178;11.566;2023-07-31T03:00:20;95809.72;;;17.61;37.00
73671;BME280;61968;48.178;11.566;2023-07-31T03:02:47;95804.94;;;17.53;37.21
73671;BME280;61968;48.178;11.566;2023-07-31T03:05:14;95812.97;;;17.53;37.12
73671;BME280;61968;48.178;11.566;2023-07-31T03:07:43;95809.78;;;17.51;37.12
73671;BME280;61968;48.178;11.566;2023-07-31T03:10:11;95802.56;;;17.52;37.10
73671;BME280;61968;48.178;11.566;2023-07-31T03:12:38;95799.09;;;17.46;37.58
73671;BME280;61968;48.178;11.566;2023-07-31T03:15:05;95802.31;;;17.48;37.46
73671;BME280;61968;48.178;11.566;2023-07-31T03:17:32;95797.75;;;17.43;37.79
73671;BME280;61968;48.178;11.566;2023-07-31T03:19:59;95801.50;;;17.42;37.97
73671;BME280;61968;48.178;11.566;2023-07-31T03:22:25;95799.06;;;17.41;37.92
73671;BME280;61968;48.178;11.566;2023-07-31T03:24:52;95796.44;;;17.36;38.23
73671;BME280;61968;48.178;11.566;2023-07-31T03:27:20;95798.81;;;17.37;38.21
73671;BME280;61968;48.178;11.566;2023-07-31T03:29:47;95801.25;;;17.34;38.28
73671;BME280;61968;48.178;11.566;2023-07-31T03:32:15;95807.66;;;17.33;38.17
73671;BME280;61968;48.178;11.566;2023-07-31T03:34:41;95812.19;;;17.37;38.46
73671;BME280;61968;48.178;11.566;2023-07-31T03:37:08;95808.72;;;17.27;38.34
73671;BME280;61968;48.178;11.566;2023-07-31T03:39:35;95813.00;;;17.28;38.57
73671;BME280;61968;48.178;11.566;2023-07-31T03:42:03;95815.13;;;17.36;38.37
73671;BME280;61968;48.178;11.566;2023-07-31T03:44:31;95813.53;;;17.35;38.36
73671;BME280;61968;48.178;11.566;2023-07-31T03:46:57;95815.13;;;17.36;38.39
73671;BME280;61968;48.178;11.566;2023-07-31T03:49:24;95813.00;;;17.43;38.57
73671;BME280;61968;48.178;11.566;2023-07-31T03:51:51;95815.69;;;17.28;38.95
73671;BME280;61968;48.178;11.566;2023-07-31T03:54:18;95815.16;;;17.31;39.04
73671;BME280;61968;48.178;11.566;2023-07-31T03:56:44;95810.59;;;17.26;39.25
73671;BME280;61968;48.178;11.566;2023-07-31T03:59:11;95815.44;;;17.24;39.31
73671;BME280;61968;48.178;11.566;2023-07-31T04:01:40;95808.47;;;17.23;39.27
73671;BME280;61968;48.178;11.566;2023-07-31T04:04:07;95813.56;;;17.25;39.28
73671;BME280;61968;48.178;11.566;2023-07-31T04:06:34;95814.84;;;17.32;39.60
73671;BME280;61968;48.178;11.566;2023-07-31T04:09:01;95812.19;;;17.32;39.21
73671;BME280;61968;48.178;11.566;2023-07-31T04:11:28;95809.56;;;17.22;39.77
73671;BME280;61968;48.178;11.566;2023-07-31T04:13:55;95803.94;;;17.18;39.79
73671;BME280;61968;48.178;11.566;2023-07-31T04:16:21;95805.25;;;17.31;39.33
73671;BME280;61968;48.178;11.566;2023-07-31T04:18:49;95797.53;;;17.25;39.41
73671;BME280;61968;48.178;11.566;2023-07-31T04:21:16;95803.66;;;17.30;39.62
73671;BME280;61968;48.178;11.566;2023-07-31T04:23:43;95803.66;;;17.20;39.75
73671;BME280;61968;48.178;11.566;2023-07-31T04:26:27;95801.00;;;17.30;39.64
73671;BME280;61968;48.178;11.566;2023-07-31T04:29:08;95797.78;;;17.33;39.53
73671;BME280;61968;48.178;11.566;2023-07-31T04:31:35;95802.31;;;17.33;39.69
73671;BME280;61968;48.178;11.566;2023-07-31T04:34:03;95802.88;;;17.25;39.84
73671;BME280;61968;48.178;11.566;2023-07-31T04:36:29;95808.53;;;17.03;40.67
73671;BME280;61968;48.178;11.566;2023-07-31T04:38:56;95806.13;;;16.91;40.65
73671;BME280;61968;48.178;11.566;2023-07-31T04:41:23;95803.72;;;16.94;40.57
73671;BME280;61968;48.178;11.566;2023-07-31T04:43:49;95806.91;;;17.02;40.66
73671;BME280;61968;48.178;11.566;2023-07-31T04:46:16;95798.63;;;17.13;40.70
73671;BME280;61968;48.178;11.566;2023-07-31T04:52:07;95790.06;;;17.16;40.11
73671;BME280;61968;48.178;11.566;2023-07-31T04:54:33;95791.94;;;17.16;40.34
73671;BME280;61968;48.178;11.566;2023-07-31T04:57:00;95794.06;;;17.19;40.43
73671;BME280;61968;48.178;11.566;2023-07-31T04:59:26;95795.94;;;17.13;40.56
73671;BME280;61968;48.178;11.566;2023-07-31T05:01:53;95798.38;;;16.99;41.09
73671;BME280;61968;48.178;11.566;2023-07-31T05:04:20;95797.03;;;16.97;41.20
73671;BME280;61968;48.178;11.566;2023-07-31T05:06:46;95791.41;;;17.04;40.87
73671;BME280;61968;48.178;11.566;2023-07-31T05:09:17;95795.97;;;16.93;41.31
73671;BME280;61968;48.178;11.566;2023-07-31T05:11:44;95795.97;;;16.93;41.53
73671;BME280;61968;48.178;11.566;2023-07-31T05:14:10;95797.31;;;16.95;41.46
73671;BME280;61968;48.178;11.566;2023-07-31T05:16:37;95798.13;;;16.81;41.82
73671;BME280;61968;48.178;11.566;2023-07-31T05:19:04;95801.06;;;16.94;41.83
73671;BME280;61968;48.178;11.566;2023-07-31T05:21:30;95798.63;;;16.93;41.99
73671;BME280;61968;48.178;11.566;2023-07-31T05:23:57;95797.03;;;16.92;41.92
73671;BME280;61968;48.178;11.566;2023-07-31T05:26:25;95801.03;;;16.84;42.10
73671;BME280;61968;48.178;11.566;2023-07-31T05:28:52;95795.72;;;16.89;42.01
73671;BME280;61968;48.178;11.566;2023-07-31T05:31:20;95781.28;;;17.06;41.70
73671;BME280;61968;48.178;11.566;2023-07-31T05:33:47;95785.78;;;17.05;41.63
73671;BME280;61968;48.178;11.566;2023-07-31T05:36:16;95788.47;;;17.05;41.24
73671;BME280;61968;48.178;11.566;2023-07-31T05:38:43;95791.16;;;17.00;41.35
73671;BME280;61968;48.178;11.566;2023-07-31T05:41:11;95784.47;;;17.08;41.17
73671;BME280;61968;48.178;11.566;2023-07-31T05:43:39;95788.22;;;17.07;40.87
73671;BME280;61968;48.178;11.566;2023-07-31T05:46:06;95781.53;;;17.09;40.74
73671;BME280;61968;48.178;11.566;2023-07-31T05:48:34;95782.59;;;17.13;40.39
73671;BME280;61968;48.178;11.566;2023-07-31T05:51:01;95787.66;;;17.05;40.53
73671;BME280;61968;48.178;11.566;2023-07-31T05:53:27;95787.97;;;17.03;40.56
73671;BME280;61968;48.178;11.566;2023-07-31T05:55:55;95782.31;;;17.05;40.01
73671;BME280;61968;48.178;11.566;2023-07-31T05:58:22;95784.78;;;16.91;40.36
73671;BME280;61968;48.178;11.566;2023-07-31T06:00:50;95783.69;;;16.92;40.16
73671;BME280;61968;48.178;11.566;2023-07-31T06:03:16;95787.69;;;16.94;40.27
73671;BME280;61968;48.178;11.566;2023-07-31T06:05:43;95787.94;;;17.13;40.17
73671;BME280;61968;48.178;11.566;2023-07-31T06:08:10;95789.00;;;17.07;40.37
73671;BME280;61968;48.178;11.566;2023-07-31T06:10:36;95787.91;;;17.18;39.96
73671;BME280;61968;48.178;11.566;2023-07-31T06:13:04;95788.22;;;17.07;40.16
73671;BME280;61968;48.178;11.566;2023-07-31T06:15:30;95794.38;;;16.97;40.25
73671;BME280;61968;48.178;11.566;2023-07-31T06:17:58;95791.19;;;16.85;40.39
73671;BME280;61968;48.178;11.566;2023-07-31T06:20:27;95793.03;;;16.94;40.48
73671;BME280;61968;48.178;11.566;2023-07-31T06:22:53;95797.28;;;17.11;40.42
73671;BME280;61968;48.178;11.566;2023-07-31T06:25:20;95797.56;;;17.09;39.83
73671;BME280;61968;48.178;11.566;2023-07-31T06:27:47;95794.59;;;17.16;39.73
73671;BME280;61968;48.178;11.566;2023-07-31T06:30:13;95791.13;;;17.15;39.29
73671;BME280;61968;48.178;11.566;2023-07-31T06:32:40;95790.09;;;17.06;39.65
73671;BME280;61968;48.178;11.566;2023-07-31T06:35:08;95791.13;;;17.15;39.37
73671;BME280;61968;48.178;11.566;2023-07-31T06:37:35;95803.38;;;17.32;39.25
73671;BME280;61968;48.178;11.566;2023-07-31T06:40:03;95802.06;;;17.19;39.53
73671;BME280;61968;48.178;11.566;2023-07-31T06:42:30;95799.66;;;17.33;39.62
73671;BME280;61968;48.178;11.566;2023-07-31T06:44:57;95806.81;;;17.48;39.10
73671;BME280;61968;48.178;11.566;2023-07-31T06:47:24;95801.16;;;17.59;38.97
73671;BME280;61968;48.178;11.566;2023-07-31T06:49:50;95793.22;;;17.44;38.72
73671;BME280;61968;48.178;11.566;2023-07-31T06:52:18;95789.19;;;17.52;38.70
73671;BME280;61968;48.178;11.566;2023-07-31T06:55:00;95785.72;;;17.46;38.83
73671;BME280;61968;48.178;11.566;2023-07-31T06:57:27;95777.47;;;17.42;38.63
73671;BME280;61968;48.178;11.566;2023-07-31T06:59:54;95783.88;;;17.31;38.83
73671;BME280;61968;48.178;11.566;2023-07-31T07:02:21;95776.69;;;17.11;39.14
73671;BME280;61968;48.178;11.566;2023-07-31T07:04:48;95779.06;;;17.33;38.84
73671;BME280;61968;48.178;11.566;2023-07-31T07:07:15;95781.50;;;17.14;39.29
73671;BME280;61968;48.178;11.566;2023-07-31T07:09:43;95785.03;;;16.94;39.57
73671;BME280;61968;48.178;11.566;2023-07-31T07:12:10;95786.06;;;17.14;39.39
73671;BME280;61968;48.178;11.566;2023-07-31T07:14:36;95783.94;;;17.06;39.66
73671;BME280;61968;48.178;11.566;2023-07-31T07:17:05;95786.28;;;17.28;39.21
73671;BME280;61968;48.178;11.566;2023-07-31T07:19:31;95786.31;;;17.22;39.15
73671;BME280;61968;48.178;11.566;2023-07-31T07:21:58;95786.81;;;17.45;38.95
73671;BME280;61968;48.178;11.566;2023-07-31T07:24:26;95779.28;;;17.52;38.79
73671;BME280;61968;48.178;11.566;2023-07-31T07:26:55;95779.00;;;17.59;38.83
73671;BME280;61968;48.178;11.566;2023-07-31T07:29:24;95780.31;;;17.66;38.72
73671;BME280;61968;48.178;11.566;2023-07-31T07:31:51;95777.88;;;17.70;38.83
73671;BME280;61968;48.178;11.566;2023-07-31T07:34:17;95777.09;;;17.70;38.62
73671;BME280;61968;48.178;11.566;2023-07-31T07:36:50;95776.38;;;17.49;38.61
73671;BME280;61968;48.178;11.566;2023-07-31T07:39:16;95779.56;;;17.51;39.23
73671;BME280;61968;48.178;11.566;2023-07-31T07:41:43;95777.66;;;17.61;39.06
73671;BME280;61968;48.178;11.566;2023-07-31T07:44:11;95773.88;;;17.62;38.90
73671;BME280;61968;48.178;11.566;2023-07-31T07:46:41;95770.97;;;17.59;38.64
73671;BME280;61968;48.178;11.566;2023-07-31T07:49:08;95769.63;;;17.66;38.27
73671;BME280;61968;48.178;11.566;2023-07-31T07:51:34;95766.47;;;17.44;38.64
73671;BME280;61968;48.178;11.566;2023-07-31T07:54:02;95754.13;;;17.63;38.21
73671;BME280;61968;48.178;11.566;2023-07-31T07:56:30;95751.72;;;17.57;38.70
73671;BME280;61968;48.178;11.566;2023-07-31T07:58:57;95741.88;;;17.52;38.00
73671;BME280;61968;48.178;11.566;2023-07-31T08:01:28;95741.31;;;17.60;38.08
73671;BME280;61968;48.178;11.566;2023-07-31T08:03:56;95743.06;;;17.80;38.30
73671;BME280;61968;48.178;11.566;2023-07-31T08:06:23;95741.94;;;17.91;38.07
73671;BME280;61968;48.178;11.566;2023-07-31T08:08:50;95742.38;;;18.04;37.51
73671;BME280;61968;48.178;11.566;2023-07-31T08:11:17;95748.94;;;17.82;37.68
73671;BME280;61968;48.178;11.566;2023-07-31T08:13:43;95747.28;;;17.86;37.77
73671;BME280;61968;48.178;11.566;2023-07-31T08:16:10;95759.78;;;18.01;37.78
73671;BME280;61968;48.178;11.566;2023-07-31T08:18:38;95753.50;;;17.82;37.47
73671;BME280;61968;48.178;11.566;2023-07-31T08:21:05;95743.84;;;17.81;37.68
73671;BME280;61968;48.178;11.566;2023-07-31T08:23:32;95747.06;;;17.83;37.49
73671;BME280;61968;48.178;11.566;2023-07-31T08:25:58;95754.38;;;18.11;37.53
73671;BME280;61968;48.178;11.566;2023-07-31T08:28:25;95753.84;;;18.09;36.50
73671;BME280;61968;48.178;11.566;2023-07-31T08:30:58;95750.25;;;17.85;36.75
73671;BME280;61968;48.178;11.566;2023-07-31T08:33:25;95752.84;;;18.00;36.42
73671;BME280;61968;48.178;11.566;2023-07-31T08:35:53;95754.94;;;18.08;36.66
73671;BME280;61968;48.178;11.566;2023-07-31T08:38:19;95754.72;;;18.00;36.11
73671;BME280;61968;48.178;11.566;2023-07-31T08:40:46;95747.66;;;17.70;35.45
73671;BME280;61968;48.178;11.566;2023-07-31T08:43:13;95752.75;;;17.66;35.96
73671;BME280;61968;48.178;11.566;2023-07-31T08:45:42;95742.13;;;17.56;36.21
73671;BME280;61968;48.178;11.566;2023-07-31T08:48:08;95744.63;;;17.86;35.43
73671;BME280;61968;48.178;11.566;2023-07-31T08:50:35;95745.41;;;17.92;35.45
73671;BME280;61968;48.178;11.566;2023-07-31T08:53:03;95748.53;;;18.04;35.18
73671;BME280;61968;48.178;11.566;2023-07-31T08:55:32;95737.44;;;18.26;35.26
73671;BME280;61968;48.178;11.566;2023-07-31T08:58:00;95740.94;;;18.27;35.36
73671;BME280;61968;48.178;11.566;2023-07-31T09:00:30;95741.28;;;18.10;35.77
73671;BME280;61968;48.178;11.566;2023-07-31T09:03:02;95742.97;;;17.96;36.02
73671;BME280;61968;48.178;11.566;2023-07-31T09:05:32;95742.69;;;17.97;35.76
73671;BME280;61968;48.178;11.566;2023-07-31T09:08:00;95751.72;;;18.06;36.51
73671;BME280;61968;48.178;11.566;2023-07-31T09:10:30;95759.25;;;17.99;36.29
73671;BME280;61968;48.178;11.566;2023-07-31T09:12:57;95740.09;;;18.26;35.84
73671;BME280;61968;48.178;11.566;2023-07-31T09:15:24;95738.63;;;18.44;35.06
73671;BME280;61968;48.178;11.566;2023-07-31T09:17:58;95737.81;;;18.09;35.88
73671;BME280;61968;48.178;11.566;2023-07-31T09:20:25;95734.16;;;18.34;35.91
73671;BME280;61968;48.178;11.566;2023-07-31T09:22:52;95728.56;;;18.31;35.25
73671;BME280;61968;48.178;11.566;2023-07-31T09:25:19;95727.16;;;18.39;34.71
73671;BME280;61968;48.178;11.566;2023-07-31T09:27:49;95721.81;;;18.39;34.66
73671;BME280;61968;48.178;11.566;2023-07-31T09:30:17;95728.13;;;18.53;35.08
73671;BME280;61968;48.178;11.566;2023-07-31T09:32:44;95724.22;;;18.40;35.05
73671;BME280;61968;48.178;11.566;2023-07-31T09:35:19;95721.00;;;18.38;34.82
73671;BME280;61968;48.178;11.566;2023-07-31T09:37:50;95729.56;;;18.40;34.77
73671;BME280;61968;48.178;11.566;2023-07-31T09:40:28;95717.41;;;18.53;34.63
73671;BME280;61968;48.178;11.566;2023-07-31T09:43:12;95720.72;;;18.45;35.15
73671;BME280;61968;48.178;11.566;2023-07-31T09:45:40;95726.22;;;18.53;34.70
73671;BME280;61968;48.178;11.566;2023-07-31T09:48:08;95715.38;;;18.69;34.94
73671;BME280;61968;48.178;11.566;2023-07-31T09:50:40;95712.88;;;18.77;34.24
73671;BME280;61968;48.178;11.566;2023-07-31T09:53:09;95705.50;;;18.69;34.39
73671;BME280;61968;48.178;11.566;2023-07-31T09:55:37;95709.41;;;18.77;34.65
73671;BME280;61968;48.178;11.566;2023-07-31T09:58:06;95694.03;;;18.64;34.29
73671;BME280;61968;48.178;11.566;2023-07-31T10:00:34;95697.38;;;18.74;34.50
73671;BME280;61968;48.178;11.566;2023-07-31T10:03:02;95694.94;;;18.78;34.13
73671;BME280;61968;48.178;11.566;2023-07-31T10:05:33;95689.31;;;18.79;34.05
73671;BME280;61968;48.178;11.566;2023-07-31T10:08:01;95682.84;;;18.27;34.80
73671;BME280;61968;48.178;11.566;2023-07-31T10:10:29;95680.22;;;18.51;34.24
73671;BME280;61968;48.178;11.566;2023-07-31T10:12:59;95683.97;;;18.50;34.64
73671;BME280;61968;48.178;11.566;2023-07-31T10:15:27;95672.63;;;17.95;35.25
73671;BME280;61968;48.178;11.566;2023-07-31T10:17:55;95657.50;;;18.49;34.48
73671;BME280;61968;48.178;11.566;2023-07-31T10:20:23;95657.41;;;18.83;33.67
73671;BME280;61968;48.178;11.566;2023-07-31T10:22:51;95649.13;;;18.85;33.49
73671;BME280;61968;48.178;11.566;2023-07-31T10:25:18;95645.97;;;19.01;33.71
73671;BME280;61968;48.178;11.566;2023-07-31T10:27:47;95643.75;;;19.09;32.97
73671;BME280;61968;48.178;11.566;2023-07-31T10:30:15;95645.84;;;19.12;33.52
73671;BME280;61968;48.178;11.566;2023-07-31T10:32:45;95644.03;;;19.26;32.91
73671;BME280;61968;48.178;11.566;2023-07-31T10:35:14;95638.63;;;19.31;33.21
73671;BME280;61968;48.178;11.566;2023-07-31T10:37:42;95646.34;;;19.14;32.72
73671;BME280;61968;48.178;11.566;2023-07-31T10:40:11;95639.97;;;19.10;32.87
73671;BME280;61968;48.178;11.566;2023-07-31T10:42:45;95644.00;;;19.07;33.28
73671;BME280;61968;48.178;11.566;2023-07-31T10:45:23;95650.88;;;19.37;32.32
73671;BME280;61968;48.178;11.566;2023-07-31T10:47:58;95643.78;;;19.46;32.84
73671;BME280;61968;48.178;11.566;2023-07-31T10:50:37;95638.34;;;19.33;33.07
73671;BME280;61968;48.178;11.566;2023-07-31T10:53:04;95643.56;;;19.24;32.79
73671;BME280;61968;48.178;11.566;2023-07-31T10:55:33;95648.13;;;19.42;32.14
73671;BME280;61968;48.178;11.566;2023-07-31T10:58:06;95642.56;;;19.39;32.74
73671;BME280;61968;48.178;11.566;2023-07-31T11:00:36;95634.50;;;19.39;32.54
73671;BME280;61968;48.178;11.566;2023-07-31T11:03:06;95626.81;;;19.32;32.90
73671;BME280;61968;48.178;11.566;2023-07-31T11:05:59;95626.34;;;19.49;32.89
73671;BME280;61968;48.178;11.566;2023-07-31T11:08:29;95619.78;;;19.17;32.75
73671;BME280;61968;48.178;11.566;2023-07-31T11:11:07;95625.69;;;19.57;32.43
73671;BME280;61968;48.178;11.566;2023-07-31T11:13:39;95616.97;;;19.65;32.40
73671;BME280;61968;48.178;11.566;2023-07-31T11:16:06;95611.13;;;19.63;32.29
73671;BME280;61968;48.178;11.566;2023-07-31T11:18:35;95603.56;;;19.65;32.39
73671;BME280;61968;48.178;11.566;2023-07-31T11:21:02;95607.84;;;19.85;32.24
73671;BME280;61968;48.178;11.566;2023-07-31T11:23:30;95610.94;;;19.92;32.57
73671;BME280;61968;48.178;11.566;2023-07-31T11:25:59;95609.53;;;19.81;32.00
73671;BME280;61968;48.178;11.566;2023-07-31T11:28:31;95609.63;;;19.90;31.73
73671;BME280;61968;48.178;11.566;2023-07-31T11:30:58;95600.09;;;19.65;32.01
73671;BME280;61968;48.178;11.566;2023-07-31T11:33:25;95594.00;;;19.59;31.82
73671;BME280;61968;48.178;11.566;2023-07-31T11:35:54;95588.13;;;19.76;32.05
73671;BME280;61968;48.178;11.566;2023-07-31T11:38:26;95581.66;;;19.77;31.04
73671;BME280;61968;48.178;11.566;2023-07-31T11:40:56;95593.88;;;20.02;31.54
73671;BME280;61968;48.178;11.566;2023-07-31T11:43:23;95582.56;;;20.05;30.66
73671;BME280;61968;48.178;11.566;2023-07-31T11:45:53;95576.03;;;20.11;30.41
73671;BME280;61968;48.178;11.566;2023-07-31T11:48:22;95568.84;;;20.07;30.69
73671;BME280;61968;48.178;11.566;2023-07-31T11:50:50;95563.53;;;20.02;31.21
73671;BME280;61968;48.178;11.566;2023-07-31T11:53:20;95555.34;;;20.12;30.58
73671;BME280;61968;48.178;11.566;2023-07-31T11:55:48;95554.50;;;20.30;30.66
73671;BME280;61968;48.178;11.566;2023-07-31T11:58:16;95548.34;;;20.57;30.87
73671;BME280;61968;48.178;11.566;2023-07-31T12:00:44;95548.31;;;20.71;29.67
73671;BME280;61968;48.178;11.566;2023-07-31T12:03:12;95538.91;;;20.60;30.06
73671;BME280;61968;48.178;11.566;2023-07-31T12:05:40;95541.56;;;20.74;30.42
73671;BME280;61968;48.178;11.566;2023-07-31T12:08:10;95539.47;;;20.71;30.36
73671;BME280;61968;48.178;11.566;2023-07-31T12:10:39;95532.91;;;20.63;30.33
73671;BME280;61968;48.178;11.566;2023-07-31T12:13:08;95521.34;;;20.62;30.35
73671;BME280;61968;48.178;11.566;2023-07-31T12:15:40;95525.25;;;20.70;30.38
73671;BME280;61968;48.178;11.566;2023-07-31T12:18:10;95523.34;;;20.71;30.69
73671;BME280;61968;48.178;11.566;2023-07-31T12:20:42;95514.09;;;20.77;30.31
73671;BME280;61968;48.178;11.566;2023-07-31T12:23:15;95514.09;;;20.91;30.50
73671;BME280;61968;48.178;11.566;2023-07-31T12:25:44;95513.97;;;20.96;29.78
73671;BME280;61968;48.178;11.566;2023-07-31T12:28:11;95503.47;;;20.58;30.38
73671;BME280;61968;48.178;11.566;2023-07-31T12:30:39;95505.03;;;20.86;29.86
73671;BME280;61968;48.178;11.566;2023-07-31T12:33:11;95496.44;;;21.12;29.55
73671;BME280;61968;48.178;11.566;2023-07-31T12:35:41;95504.13;;;21.05;28.38
73671;BME280;61968;48.178;11.566;2023-07-31T12:38:08;95492.38;;;21.01;28.69
73671;BME280;61968;48.178;11.566;2023-07-31T12:40:37;95492.47;;;20.96;27.98
73671;BME280;61968;48.178;11.566;2023-07-31T12:43:06;95488.56;;;21.02;28.20
73671;BME280;61968;48.178;11.566;2023-07-31T12:45:33;95486.84;;;20.56;28.64
73671;BME280;61968;48.178;11.566;2023-07-31T12:48:01;95483.97;;;20.66;28.56
73671;BME280;61968;48.178;11.566;2023-07-31T12:50:27;95481.81;;;21.04;28.33
73671;BME280;61968;48.178;11.566;2023-07-31T12:52:54;95477.50;;;21.17;28.79
73671;BME280;61968;48.178;11.566;2023-07-31T12:55:21;95467.34;;;21.37;28.00
73671;BME280;61968;48.178;11.566;2023-07-31T12:57:48;95473.28;;;21.25;28.72